Disclaimer

Please do not use the information listed here in-flight or in-navigation, as they are not provided to us by the airports but are provided by volunteers, so they might be outdated.

Search


Regions


Airport information page

Radio informations:
BREMEN RADAR - 136.225 MHz
BREMEN INFO - 125.1 MHz

Airport informations:
Latitude: 54° 54' 47.70" N
Longitude: 008° 20' 25.70" E
Elevation: 51 feet - 16 meters
Operating hours: Remarks
Operating agency: Civil government, landing fees and diplomatic clearance may be required
Timezone: UTC+1(+2DT) - Last Sunday in March to last Sunday in October
Fuel: Jet A1, without icing nhibitor.

100/130 MIL Spec, low lead, aviation gasoline (BLUE)

Runway information:
06/24 - 5564 x 148 feet< - >1696 x 45 meters
14/32 - 6955 x 148 feet< - >2120 x 45 meters

Recent METARs:
EDXW 170650Z 11011KT CAVOK 02/01 Q1038
EDXW 170650Z 11011KT CAVOK 02/01 Q1038
EDXW 170820Z 11012KT CAVOK 03/02 Q1038

Airport on the map: